CheckWX is a tool to help pilots better visualize weather data.  It is not intended as a substitute for an official pre-flight weather briefing.

09:21:23 UTC

KPRN METAR
Mac Crenshaw Memorial Airport
Greenville, Alabama, USA
Current

20 mins ago

KPRN 070901Z AUTO 30003KT 2SM BR FEW008 10/08 A3016 RMK AO2 T01000083
Observed
Dec-7 @ 09:01 UTC
Wind
  • 300° at 3 KTS
Visibility
2 SM
Flight Rules
IFR
Conditions
Mist
Cloud Levels
  • Few at 800' AGL
Temperature
10°C / 50°F
Dewpoint
C / 46°F
Humidity
88%
Altimeter
30.16" Hg
Pressure
1021.32 hPa
Previous

43 mins ago

KPRN 070838Z AUTO 35003KT 1SM BR VV001 11/09 A3016 RMK AO2 T01060089
Observed
Dec-7 @ 08:38 UTC
Wind
  • 350° at 3 KTS
Visibility
1 SM
Flight Rules
LIFR
Conditions
Mist
Cloud Levels
  • Vertical visibility at 100' AGL
Temperature
11°C / 52°F
Dewpoint
C / 48°F
Humidity
88%
Altimeter
30.16" Hg
Pressure
1021.32 hPa
Previous

1 hour ago

KPRN 070756Z AUTO 00000KT 1/4SM FG VV001 11/09 A3015 RMK AO2 SLP208 T01110094
Observed
Dec-7 @ 07:56 UTC
Visibility
1/4 SM
Flight Rules
LIFR
Conditions
Fog
Cloud Levels
  • Vertical visibility at 100' AGL
Temperature
11°C / 52°F
Dewpoint
C / 48°F
Humidity
88%
Altimeter
30.15" Hg
Pressure
1021.02 hPa